WHITEHORSE,Y.T current weather conditions

sailwx.info

Wind from 180 at 11 knots

Air temperature -6.0° C
Visibility: greater than 34.8 NM
Dewpoint -11.0° C

Last reported at 2017-Jan-17 19:00 UTC.
Time now 2017-Jan-17 21:20 UTC

Location: N 60°43' W 135°04'.
View on Google Maps.

See reports from other nearby stations

  
Tides and Currents Weather Stations Pressure Air Temp Water Temp Dewpoint Dewpoint Depression Visibility Wind Speed Wind Dir Waves Ship Positions
date/time (UTC)wind fromknots sea level pressurealtimeterstation pressurevisibilityair tempwater tempwave heightnotes
2017-Jan-17 20:00 160 6 34.8-3.0
2017-Jan-17 19:00 180 11 34.8-6.0
2017-Jan-17 18:00 150 6 34.8-5.0
2017-Jan-17 17:00 170 6 17.4-5.0
2017-Jan-17 16:00 150 2 13.0-4.0
2017-Jan-17 14:00 160 11 13.0-3.0
2017-Jan-17 13:00 160 12 13.0-2.0
2017-Jan-17 12:00 150 8 13.0-2.0
2017-Jan-17 11:00 140 8 gusting 14 13.0-1.0
2017-Jan-17 10:00 160 11 gusting 19 13.0-0.0
2017-Jan-17 09:00 160 12 13.0 1.0
2017-Jan-17 08:00 170 6 13.0-0.0
2017-Jan-17 07:00 210 13 gusting 18 13.0 1.0
2017-Jan-17 06:00 160 13 gusting 25 13.0 1.0
2017-Jan-17 05:23 160 26 13.0 1.0 Light low drifting snow.
2017-Jan-17 05:00 180 17 gusting 31 13.0 1.0 Light low drifting snow.
2017-Jan-17 04:00 130 7 gusting 17 13.0 1.0 Light low drifting snow.
2017-Jan-17 03:00 160 24 13.0 2.0 Light low drifting snow.
2017-Jan-17 02:00 160 20 13.0 2.0 Light low drifting snow.
2017-Jan-17 01:00 150 13 gusting 22 34.8 2.0 Light low drifting snow.
2017-Jan-17 00:00 160 12 gusting 22 34.8 2.0
2017-Jan-16 23:00 160 22 gusting 27 34.8 3.0 Light low drifting snow.
2017-Jan-16 22:00 160 25 gusting 29 13.0 3.0 Light low drifting snow. Showers in the vicinity.
2017-Jan-16 21:00 160 19 gusting 26 13.0 2.0 Light low drifting snow. Showers in the vicinity.
2017-Jan-16 20:00 160 18 gusting 24 13.0 1.0 Light low drifting snow. Showers in the vicinity.
2017-Jan-16 19:00 160 20 gusting 26 13.0 1.0 Light low drifting snow. Showers in the vicinity.
2017-Jan-16 18:00 160 25 gusting 31 13.0 1.0 Light low drifting snow. Showers in the vicinity.
2017-Jan-16 17:41 160 21 gusting 27 13.0 1.0 Light low drifting snow. Showers in the vicinity.
2017-Jan-16 17:00 150 24 gusting 31 13.0 1.0 Light low drifting snow.
2017-Jan-16 16:51 160 20 gusting 27 13.0 1.0 Light low drifting snow.
2017-Jan-16 16:00 150 14 gusting 24 5.2 1.0 Light snow. Light low drifting snow.
2017-Jan-16 15:00 150 17 gusting 28 6.9 1.0 Light low drifting snow.
2017-Jan-16 14:00 160 18 gusting 26 6.9 1.0 Light snow. Light low drifting snow.
2017-Jan-16 13:00 160 17 gusting 24 5.2 1.0 Light snow. Light low drifting snow.
2017-Jan-16 12:00 160 19 gusting 25 10.4 1.0 Light snow. Light low drifting snow.
2017-Jan-16 11:36 170 20 10.4 1.0 Light snow. Light low drifting snow.
2017-Jan-16 11:00 170 20 gusting 27 13.0 1.0 Light low drifting snow.
2017-Jan-16 10:30 160 18 gusting 24 13.0-0.0 Light snow. Light low drifting snow.
2017-Jan-16 10:00 170 17 gusting 24 10.4-0.0 Light snow. Light low drifting snow.
2017-Jan-16 09:21 160 11 gusting 19 8.7-0.0 Light snow. Light low drifting snow.
2017-Jan-16 09:00 160 12 gusting 20 6.9-0.0 Light snow. Light low drifting snow.
2017-Jan-16 08:48 160 15 gusting 25 8.7-0.0 Light snow. Light low drifting snow.
2017-Jan-16 08:15 160 19 8.7-0.0 Light snow. Light low drifting snow.
2017-Jan-16 08:00 160 18 gusting 22 8.7-0.0 Light snow. Light low drifting snow.
2017-Jan-16 07:00 190 14 gusting 25 8.7-1.0 Light snow. Light low drifting snow.
2017-Jan-16 06:00 170 19 gusting 25 8.7-1.0 Light snow. Light low drifting snow.
2017-Jan-16 05:00 170 27 5.2-1.0 Light snow. Light low drifting snow.
2017-Jan-16 04:44 160 22 gusting 32 8.7-1.0 Light snow. Light low drifting snow.
2017-Jan-16 04:00 160 25 gusting 32 13.0-1.0 Light low drifting snow.
2017-Jan-16 03:00 160 18 gusting 26 13.0-0.0 Light low drifting snow.
2017-Jan-16 02:00 160 19 13.0-0.0 Light low drifting snow.
2017-Jan-16 01:00 170 14 gusting 20 34.8-1.0 Light low drifting snow.
2017-Jan-16 00:00 150 9 34.8-0.0 Light low drifting snow.
2017-Jan-15 23:00 140 7 gusting 15 34.8-0.0 Light low drifting snow.
2017-Jan-15 22:00 150 14 gusting 25 34.8-0.0 Light low drifting snow.
2017-Jan-15 21:00 140 11 gusting 15 34.8-0.0 Light low drifting snow.